sensor_id;sensor_type;location;lat;lon;timestamp;P1;durP1;ratioP1;P2;durP2;ratioP2
79574;SDS011;69044;48.198;11.468;2023-04-21T00:00:07;12.27;;;5.63;;
79574;SDS011;69044;48.198;11.468;2023-04-21T00:02:35;11.35;;;5.05;;
79574;SDS011;69044;48.198;11.468;2023-04-21T00:05:05;9.02;;;4.68;;
79574;SDS011;69044;48.198;11.468;2023-04-21T00:07:34;10.23;;;5.13;;
79574;SDS011;69044;48.198;11.468;2023-04-21T00:10:02;12.30;;;5.85;;
79574;SDS011;69044;48.198;11.468;2023-04-21T00:12:30;10.25;;;5.22;;
79574;SDS011;69044;48.198;11.468;2023-04-21T00:14:57;12.45;;;5.95;;
79574;SDS011;69044;48.198;11.468;2023-04-21T00:17:26;9.45;;;5.20;;
79574;SDS011;69044;48.198;11.468;2023-04-21T00:22:20;10.75;;;4.70;;
79574;SDS011;69044;48.198;11.468;2023-04-21T00:24:47;11.20;;;4.97;;
79574;SDS011;69044;48.198;11.468;2023-04-21T00:27:15;12.80;;;5.55;;
79574;SDS011;69044;48.198;11.468;2023-04-21T00:29:42;12.98;;;5.70;;
79574;SDS011;69044;48.198;11.468;2023-04-21T00:34:39;6.82;;;3.42;;
79574;SDS011;69044;48.198;11.468;2023-04-21T00:37:06;10.55;;;5.55;;
79574;SDS011;69044;48.198;11.468;2023-04-21T00:39:33;9.98;;;4.90;;
79574;SDS011;69044;48.198;11.468;2023-04-21T00:42:00;11.43;;;5.05;;
79574;SDS011;69044;48.198;11.468;2023-04-21T00:44:27;10.43;;;5.22;;
79574;SDS011;69044;48.198;11.468;2023-04-21T00:49:23;11.13;;;4.63;;
79574;SDS011;69044;48.198;11.468;2023-04-21T00:51:52;11.27;;;5.15;;
79574;SDS011;69044;48.198;11.468;2023-04-21T00:54:21;13.30;;;6.30;;
79574;SDS011;69044;48.198;11.468;2023-04-21T00:56:49;12.95;;;5.65;;
79574;SDS011;69044;48.198;11.468;2023-04-21T00:59:17;12.07;;;4.97;;
79574;SDS011;69044;48.198;11.468;2023-04-21T01:01:44;11.88;;;5.70;;
79574;SDS011;69044;48.198;11.468;2023-04-21T01:04:11;16.73;;;5.80;;
79574;SDS011;69044;48.198;11.468;2023-04-21T01:06:38;12.20;;;5.50;;
79574;SDS011;69044;48.198;11.468;2023-04-21T01:09:08;12.25;;;5.65;;
79574;SDS011;69044;48.198;11.468;2023-04-21T01:11:36;10.23;;;4.90;;
79574;SDS011;69044;48.198;11.468;2023-04-21T01:14:06;11.80;;;5.55;;
79574;SDS011;69044;48.198;11.468;2023-04-21T01:16:33;9.10;;;4.40;;
79574;SDS011;69044;48.198;11.468;2023-04-21T01:19:01;11.30;;;5.18;;
79574;SDS011;69044;48.198;11.468;2023-04-21T01:21:35;10.30;;;4.72;;
79574;SDS011;69044;48.198;11.468;2023-04-21T01:24:05;13.18;;;5.63;;
79574;SDS011;69044;48.198;11.468;2023-04-21T01:26:32;12.90;;;5.53;;
79574;SDS011;69044;48.198;11.468;2023-04-21T01:29:00;10.95;;;5.43;;
79574;SDS011;69044;48.198;11.468;2023-04-21T01:31:28;11.15;;;4.80;;
79574;SDS011;69044;48.198;11.468;2023-04-21T01:33:55;12.13;;;5.13;;
79574;SDS011;69044;48.198;11.468;2023-04-21T01:36:22;13.20;;;5.68;;
79574;SDS011;69044;48.198;11.468;2023-04-21T01:38:52;12.00;;;4.78;;
79574;SDS011;69044;48.198;11.468;2023-04-21T01:41:21;10.02;;;4.95;;
79574;SDS011;69044;48.198;11.468;2023-04-21T01:43:48;8.68;;;4.47;;
79574;SDS011;69044;48.198;11.468;2023-04-21T01:46:18;8.73;;;3.92;;
79574;SDS011;69044;48.198;11.468;2023-04-21T01:48:46;13.48;;;6.10;;
79574;SDS011;69044;48.198;11.468;2023-04-21T01:51:14;10.07;;;5.15;;
79574;SDS011;69044;48.198;11.468;2023-04-21T01:53:42;11.23;;;4.93;;
79574;SDS011;69044;48.198;11.468;2023-04-21T01:56:13;11.57;;;5.25;;
79574;SDS011;69044;48.198;11.468;2023-04-21T01:58:40;11.18;;;5.75;;
79574;SDS011;69044;48.198;11.468;2023-04-21T02:01:10;12.10;;;5.20;;
79574;SDS011;69044;48.198;11.468;2023-04-21T02:03:38;10.45;;;4.95;;
79574;SDS011;69044;48.198;11.468;2023-04-21T02:06:07;9.48;;;4.93;;
79574;SDS011;69044;48.198;11.468;2023-04-21T02:08:34;12.48;;;5.07;;
79574;SDS011;69044;48.198;11.468;2023-04-21T02:11:01;13.82;;;5.47;;
79574;SDS011;69044;48.198;11.468;2023-04-21T02:13:30;10.73;;;4.65;;
79574;SDS011;69044;48.198;11.468;2023-04-21T02:15:57;11.25;;;5.00;;
79574;SDS011;69044;48.198;11.468;2023-04-21T02:18:24;9.43;;;4.97;;
79574;SDS011;69044;48.198;11.468;2023-04-21T02:20:54;12.32;;;5.55;;
79574;SDS011;69044;48.198;11.468;2023-04-21T02:23:21;12.85;;;5.30;;
79574;SDS011;69044;48.198;11.468;2023-04-21T02:25:49;10.55;;;5.00;;
79574;SDS011;69044;48.198;11.468;2023-04-21T02:28:16;11.73;;;5.13;;
79574;SDS011;69044;48.198;11.468;2023-04-21T02:30:44;10.00;;;4.78;;
79574;SDS011;69044;48.198;11.468;2023-04-21T02:33:12;12.00;;;5.63;;
79574;SDS011;69044;48.198;11.468;2023-04-21T02:35:39;9.50;;;4.65;;
79574;SDS011;69044;48.198;11.468;2023-04-21T02:38:06;10.75;;;3.60;;
79574;SDS011;69044;48.198;11.468;2023-04-21T02:40:35;10.65;;;5.25;;
79574;SDS011;69044;48.198;11.468;2023-04-21T02:43:02;10.07;;;5.35;;
79574;SDS011;69044;48.198;11.468;2023-04-21T02:45:30;11.43;;;5.13;;
79574;SDS011;69044;48.198;11.468;2023-04-21T02:47:59;12.10;;;5.57;;
79574;SDS011;69044;48.198;11.468;2023-04-21T02:50:26;10.20;;;5.38;;
79574;SDS011;69044;48.198;11.468;2023-04-21T02:52:53;11.25;;;5.55;;
79574;SDS011;69044;48.198;11.468;2023-04-21T02:55:20;12.20;;;5.53;;
79574;SDS011;69044;48.198;11.468;2023-04-21T02:57:48;10.30;;;5.15;;
79574;SDS011;69044;48.198;11.468;2023-04-21T03:00:15;13.30;;;5.47;;
79574;SDS011;69044;48.198;11.468;2023-04-21T03:02:43;11.38;;;5.45;;
79574;SDS011;69044;48.198;11.468;2023-04-21T03:05:11;10.50;;;4.40;;
79574;SDS011;69044;48.198;11.468;2023-04-21T03:10:06;10.07;;;4.00;;
79574;SDS011;69044;48.198;11.468;2023-04-21T03:12:33;9.82;;;4.40;;
79574;SDS011;69044;48.198;11.468;2023-04-21T03:15:01;9.57;;;4.50;;
79574;SDS011;69044;48.198;11.468;2023-04-21T03:17:28;9.88;;;5.13;;
79574;SDS011;69044;48.198;11.468;2023-04-21T03:19:55;8.05;;;4.32;;
79574;SDS011;69044;48.198;11.468;2023-04-21T03:22:24;9.00;;;4.80;;
79574;SDS011;69044;48.198;11.468;2023-04-21T03:24:51;9.05;;;3.85;;
79574;SDS011;69044;48.198;11.468;2023-04-21T03:27:18;9.70;;;4.75;;
79574;SDS011;69044;48.198;11.468;2023-04-21T03:29:45;13.60;;;5.35;;
79574;SDS011;69044;48.198;11.468;2023-04-21T03:32:13;10.70;;;5.28;;
79574;SDS011;69044;48.198;11.468;2023-04-21T03:34:42;10.05;;;4.18;;
79574;SDS011;69044;48.198;11.468;2023-04-21T03:37:13;11.68;;;5.20;;
79574;SDS011;69044;48.198;11.468;2023-04-21T03:39:42;14.30;;;5.45;;
79574;SDS011;69044;48.198;11.468;2023-04-21T03:42:10;10.32;;;4.53;;
79574;SDS011;69044;48.198;11.468;2023-04-21T03:44:37;12.05;;;5.32;;
79574;SDS011;69044;48.198;11.468;2023-04-21T03:47:04;10.80;;;4.85;;
79574;SDS011;69044;48.198;11.468;2023-04-21T03:49:32;13.18;;;5.40;;
79574;SDS011;69044;48.198;11.468;2023-04-21T03:52:00;11.77;;;5.18;;
79574;SDS011;69044;48.198;11.468;2023-04-21T03:54:27;12.18;;;6.28;;
79574;SDS011;69044;48.198;11.468;2023-04-21T03:56:55;12.35;;;4.72;;
79574;SDS011;69044;48.198;11.468;2023-04-21T03:59:22;11.98;;;6.28;;
79574;SDS011;69044;48.198;11.468;2023-04-21T04:01:50;9.68;;;4.15;;
79574;SDS011;69044;48.198;11.468;2023-04-21T04:04:17;11.38;;;5.28;;
79574;SDS011;69044;48.198;11.468;2023-04-21T04:06:44;11.30;;;5.55;;
79574;SDS011;69044;48.198;11.468;2023-04-21T04:09:11;9.85;;;4.40;;
79574;SDS011;69044;48.198;11.468;2023-04-21T04:11:38;9.32;;;4.95;;
79574;SDS011;69044;48.198;11.468;2023-04-21T04:14:07;10.15;;;5.13;;
79574;SDS011;69044;48.198;11.468;2023-04-21T04:16:34;12.25;;;5.07;;
79574;SDS011;69044;48.198;11.468;2023-04-21T04:19:02;10.73;;;4.70;;
79574;SDS011;69044;48.198;11.468;2023-04-21T04:21:29;11.32;;;5.10;;
79574;SDS011;69044;48.198;11.468;2023-04-21T04:23:57;11.52;;;3.85;;
79574;SDS011;69044;48.198;11.468;2023-04-21T04:26:24;9.85;;;4.88;;
79574;SDS011;69044;48.198;11.468;2023-04-21T04:28:52;9.25;;;4.97;;
79574;SDS011;69044;48.198;11.468;2023-04-21T04:31:22;11.15;;;5.07;;
79574;SDS011;69044;48.198;11.468;2023-04-21T04:33:50;11.77;;;5.28;;
79574;SDS011;69044;48.198;11.468;2023-04-21T04:36:17;10.15;;;4.95;;
79574;SDS011;69044;48.198;11.468;2023-04-21T04:38:44;10.93;;;4.82;;
79574;SDS011;69044;48.198;11.468;2023-04-21T04:41:11;17.02;;;6.03;;
79574;SDS011;69044;48.198;11.468;2023-04-21T04:46:07;13.77;;;5.88;;
79574;SDS011;69044;48.198;11.468;2023-04-21T04:48:38;12.93;;;5.35;;
79574;SDS011;69044;48.198;11.468;2023-04-21T04:51:06;9.60;;;5.38;;
79574;SDS011;69044;48.198;11.468;2023-04-21T04:53:33;11.45;;;4.32;;
79574;SDS011;69044;48.198;11.468;2023-04-21T04:56:00;14.93;;;5.57;;
79574;SDS011;69044;48.198;11.468;2023-04-21T04:58:27;13.25;;;6.20;;
79574;SDS011;69044;48.198;11.468;2023-04-21T05:00:55;12.60;;;4.93;;
79574;SDS011;69044;48.198;11.468;2023-04-21T05:03:22;9.52;;;4.90;;
79574;SDS011;69044;48.198;11.468;2023-04-21T05:05:50;13.30;;;6.18;;
79574;SDS011;69044;48.198;11.468;2023-04-21T05:08:18;12.05;;;5.47;;
79574;SDS011;69044;48.198;11.468;2023-04-21T05:10:46;12.82;;;5.78;;
79574;SDS011;69044;48.198;11.468;2023-04-21T05:13:15;13.57;;;5.53;;
79574;SDS011;69044;48.198;11.468;2023-04-21T05:15:42;12.98;;;6.10;;
79574;SDS011;69044;48.198;11.468;2023-04-21T05:18:10;12.75;;;6.07;;
79574;SDS011;69044;48.198;11.468;2023-04-21T05:20:39;12.88;;;5.82;;
79574;SDS011;69044;48.198;11.468;2023-04-21T05:23:08;13.27;;;5.90;;
79574;SDS011;69044;48.198;11.468;2023-04-21T05:25:35;12.70;;;5.88;;
79574;SDS011;69044;48.198;11.468;2023-04-21T05:28:03;10.63;;;5.38;;
79574;SDS011;69044;48.198;11.468;2023-04-21T05:30:30;12.52;;;5.30;;
79574;SDS011;69044;48.198;11.468;2023-04-21T05:32:57;14.48;;;6.30;;
79574;SDS011;69044;48.198;11.468;2023-04-21T05:35:24;14.90;;;5.82;;
79574;SDS011;69044;48.198;11.468;2023-04-21T05:37:52;10.68;;;4.93;;
79574;SDS011;69044;48.198;11.468;2023-04-21T05:40:20;12.63;;;5.60;;
79574;SDS011;69044;48.198;11.468;2023-04-21T05:45:14;15.30;;;6.40;;
79574;SDS011;69044;48.198;11.468;2023-04-21T05:47:42;16.05;;;5.35;;
79574;SDS011;69044;48.198;11.468;2023-04-21T05:50:09;14.10;;;5.75;;
79574;SDS011;69044;48.198;11.468;2023-04-21T05:52:36;13.20;;;5.85;;
79574;SDS011;69044;48.198;11.468;2023-04-21T05:55:04;14.82;;;6.25;;
79574;SDS011;69044;48.198;11.468;2023-04-21T05:57:33;15.38;;;6.97;;
79574;SDS011;69044;48.198;11.468;2023-04-21T06:00:04;12.77;;;6.32;;
79574;SDS011;69044;48.198;11.468;2023-04-21T06:02:32;14.23;;;6.28;;
79574;SDS011;69044;48.198;11.468;2023-04-21T06:04:59;15.80;;;6.07;;
79574;SDS011;69044;48.198;11.468;2023-04-21T06:07:26;13.77;;;6.50;;
79574;SDS011;69044;48.198;11.468;2023-04-21T06:09:53;12.25;;;4.28;;
79574;SDS011;69044;48.198;11.468;2023-04-21T06:12:22;18.17;;;7.28;;
79574;SDS011;69044;48.198;11.468;2023-04-21T06:14:51;16.25;;;6.57;;
79574;SDS011;69044;48.198;11.468;2023-04-21T06:17:22;14.02;;;5.53;;
79574;SDS011;69044;48.198;11.468;2023-04-21T06:19:49;15.98;;;6.72;;
79574;SDS011;69044;48.198;11.468;2023-04-21T06:22:18;14.20;;;5.63;;
79574;SDS011;69044;48.198;11.468;2023-04-21T06:24:46;13.88;;;5.68;;
79574;SDS011;69044;48.198;11.468;2023-04-21T06:27:14;14.27;;;6.32;;
79574;SDS011;69044;48.198;11.468;2023-04-21T06:29:41;16.13;;;7.00;;
79574;SDS011;69044;48.198;11.468;2023-04-21T06:32:10;16.48;;;6.97;;
79574;SDS011;69044;48.198;11.468;2023-04-21T06:34:38;15.88;;;6.60;;
79574;SDS011;69044;48.198;11.468;2023-04-21T06:37:05;19.00;;;7.50;;
79574;SDS011;69044;48.198;11.468;2023-04-21T06:39:32;15.57;;;6.68;;
79574;SDS011;69044;48.198;11.468;2023-04-21T06:41:59;19.13;;;7.65;;
79574;SDS011;69044;48.198;11.468;2023-04-21T06:44:27;18.80;;;7.95;;
79574;SDS011;69044;48.198;11.468;2023-04-21T06:46:54;13.88;;;6.78;;
79574;SDS011;69044;48.198;11.468;2023-04-21T06:49:23;18.00;;;7.90;;
79574;SDS011;69044;48.198;11.468;2023-04-21T06:51:50;18.27;;;6.65;;
79574;SDS011;69044;48.198;11.468;2023-04-21T06:54:17;15.32;;;7.10;;
79574;SDS011;69044;48.198;11.468;2023-04-21T06:56:45;16.02;;;7.32;;
79574;SDS011;69044;48.198;11.468;2023-04-21T06:59:12;15.20;;;6.63;;
79574;SDS011;69044;48.198;11.468;2023-04-21T07:01:39;16.73;;;7.18;;
79574;SDS011;69044;48.198;11.468;2023-04-21T07:04:06;13.52;;;6.90;;
79574;SDS011;69044;48.198;11.468;2023-04-21T07:06:35;13.55;;;6.57;;
79574;SDS011;69044;48.198;11.468;2023-04-21T07:09:02;16.02;;;7.00;;
79574;SDS011;69044;48.198;11.468;2023-04-21T07:11:30;14.98;;;6.75;;
79574;SDS011;69044;48.198;11.468;2023-04-21T07:13:57;14.82;;;6.45;;
79574;SDS011;69044;48.198;11.468;2023-04-21T07:16:26;13.75;;;6.18;;
79574;SDS011;69044;48.198;11.468;2023-04-21T07:18:53;13.45;;;6.32;;
79574;SDS011;69044;48.198;11.468;2023-04-21T07:21:21;13.82;;;5.88;;
79574;SDS011;69044;48.198;11.468;2023-04-21T07:23:49;14.43;;;5.95;;
79574;SDS011;69044;48.198;11.468;2023-04-21T07:26:16;13.43;;;5.70;;
79574;SDS011;69044;48.198;11.468;2023-04-21T07:28:44;11.70;;;5.97;;
79574;SDS011;69044;48.198;11.468;2023-04-21T07:31:11;14.35;;;6.03;;
79574;SDS011;69044;48.198;11.468;2023-04-21T07:33:38;11.82;;;5.15;;
79574;SDS011;69044;48.198;11.468;2023-04-21T07:36:05;12.52;;;5.60;;
79574;SDS011;69044;48.198;11.468;2023-04-21T07:38:33;13.27;;;5.57;;
79574;SDS011;69044;48.198;11.468;2023-04-21T07:41:02;8.23;;;3.92;;
79574;SDS011;69044;48.198;11.468;2023-04-21T07:45:56;9.20;;;4.50;;
79574;SDS011;69044;48.198;11.468;2023-04-21T07:48:23;10.52;;;4.82;;
79574;SDS011;69044;48.198;11.468;2023-04-21T07:50:51;11.50;;;5.28;;
79574;SDS011;69044;48.198;11.468;2023-04-21T07:53:18;13.95;;;5.85;;
79574;SDS011;69044;48.198;11.468;2023-04-21T07:55:45;10.73;;;5.13;;
79574;SDS011;69044;48.198;11.468;2023-04-21T07:58:14;11.07;;;5.93;;
79574;SDS011;69044;48.198;11.468;2023-04-21T08:00:41;10.02;;;5.47;;
79574;SDS011;69044;48.198;11.468;2023-04-21T08:03:09;12.80;;;5.53;;
79574;SDS011;69044;48.198;11.468;2023-04-21T08:05:36;59.30;;;20.45;;
79574;SDS011;69044;48.198;11.468;2023-04-21T08:08:04;15.05;;;7.47;;
79574;SDS011;69044;48.198;11.468;2023-04-21T08:10:32;15.07;;;6.68;;
79574;SDS011;69044;48.198;11.468;2023-04-21T08:12:59;10.27;;;4.45;;
79574;SDS011;69044;48.198;11.468;2023-04-21T08:17:56;11.75;;;5.18;;
79574;SDS011;69044;48.198;11.468;2023-04-21T08:20:23;10.63;;;5.40;;
79574;SDS011;69044;48.198;11.468;2023-04-21T08:22:50;10.57;;;5.05;;
79574;SDS011;69044;48.198;11.468;2023-04-21T08:25:17;10.93;;;5.03;;
79574;SDS011;69044;48.198;11.468;2023-04-21T08:27:45;10.98;;;5.38;;
79574;SDS011;69044;48.198;11.468;2023-04-21T08:30:12;11.50;;;5.28;;
79574;SDS011;69044;48.198;11.468;2023-04-21T08:32:41;11.43;;;5.47;;
79574;SDS011;69044;48.198;11.468;2023-04-21T08:35:09;9.77;;;4.88;;
79574;SDS011;69044;48.198;11.468;2023-04-21T08:37:36;8.73;;;5.18;;
79574;SDS011;69044;48.198;11.468;2023-04-21T08:40:04;11.30;;;4.93;;
79574;SDS011;69044;48.198;11.468;2023-04-21T08:42:32;11.60;;;4.72;;
79574;SDS011;69044;48.198;11.468;2023-04-21T08:45:00;10.52;;;4.78;;
79574;SDS011;69044;48.198;11.468;2023-04-21T08:47:27;10.40;;;5.22;;
79574;SDS011;69044;48.198;11.468;2023-04-21T08:49:56;9.32;;;4.90;;
79574;SDS011;69044;48.198;11.468;2023-04-21T08:54:50;9.05;;;4.82;;
79574;SDS011;69044;48.198;11.468;2023-04-21T08:57:20;11.48;;;4.82;;
79574;SDS011;69044;48.198;11.468;2023-04-21T08:59:48;9.68;;;4.68;;
79574;SDS011;69044;48.198;11.468;2023-04-21T09:02:15;9.15;;;4.72;;
79574;SDS011;69044;48.198;11.468;2023-04-21T09:04:43;11.05;;;5.15;;
79574;SDS011;69044;48.198;11.468;2023-04-21T09:07:28;8.45;;;4.07;;
79574;SDS011;69044;48.198;11.468;2023-04-21T09:09:57;10.52;;;4.47;;
79574;SDS011;69044;48.198;11.468;2023-04-21T09:12:24;11.10;;;4.90;;
79574;SDS011;69044;48.198;11.468;2023-04-21T09:14:52;9.60;;;4.97;;
79574;SDS011;69044;48.198;11.468;2023-04-21T09:17:20;9.60;;;5.13;;
79574;SDS011;69044;48.198;11.468;2023-04-21T09:19:50;11.15;;;5.15;;
79574;SDS011;69044;48.198;11.468;2023-04-21T09:22:18;11.55;;;5.15;;
79574;SDS011;69044;48.198;11.468;2023-04-21T09:29:44;8.50;;;4.07;;
79574;SDS011;69044;48.198;11.468;2023-04-21T09:32:15;9.02;;;4.40;;
79574;SDS011;69044;48.198;11.468;2023-04-21T09:34:43;10.32;;;4.47;;
79574;SDS011;69044;48.198;11.468;2023-04-21T09:37:36;7.45;;;4.32;;
79574;SDS011;69044;48.198;11.468;2023-04-21T09:40:04;11.43;;;5.30;;
79574;SDS011;69044;48.198;11.468;2023-04-21T09:42:32;8.15;;;4.55;;
79574;SDS011;69044;48.198;11.468;2023-04-21T09:45:00;12.23;;;5.82;;
79574;SDS011;69044;48.198;11.468;2023-04-21T09:47:28;12.18;;;5.95;;
79574;SDS011;69044;48.198;11.468;2023-04-21T09:49:56;10.55;;;5.60;;
79574;SDS011;69044;48.198;11.468;2023-04-21T09:52:25;11.45;;;5.63;;
79574;SDS011;69044;48.198;11.468;2023-04-21T09:54:56;11.70;;;5.28;;
79574;SDS011;69044;48.198;11.468;2023-04-21T09:57:24;10.98;;;5.47;;
79574;SDS011;69044;48.198;11.468;2023-04-21T09:59:53;11.07;;;5.47;;
79574;SDS011;69044;48.198;11.468;2023-04-21T10:02:23;9.02;;;4.78;;
79574;SDS011;69044;48.198;11.468;2023-04-21T10:04:52;9.20;;;4.78;;
79574;SDS011;69044;48.198;11.468;2023-04-21T10:07:19;10.82;;;5.30;;
79574;SDS011;69044;48.198;11.468;2023-04-21T10:09:49;9.82;;;5.30;;
79574;SDS011;69044;48.198;11.468;2023-04-21T10:12:19;10.30;;;4.40;;
79574;SDS011;69044;48.198;11.468;2023-04-21T10:14:49;10.57;;;5.30;;
79574;SDS011;69044;48.198;11.468;2023-04-21T10:17:17;10.27;;;4.88;;
79574;SDS011;69044;48.198;11.468;2023-04-21T10:19:47;10.68;;;5.15;;
79574;SDS011;69044;48.198;11.468;2023-04-21T10:22:21;8.52;;;4.50;;
79574;SDS011;69044;48.198;11.468;2023-04-21T10:24:54;7.38;;;4.15;;
79574;SDS011;69044;48.198;11.468;2023-04-21T10:30:01;7.80;;;4.05;;
79574;SDS011;69044;48.198;11.468;2023-04-21T10:32:44;8.32;;;4.53;;
79574;SDS011;69044;48.198;11.468;2023-04-21T10:35:12;8.32;;;4.78;;
79574;SDS011;69044;48.198;11.468;2023-04-21T10:37:43;7.35;;;3.92;;
79574;SDS011;69044;48.198;11.468;2023-04-21T10:40:32;18.23;;;7.25;;
79574;SDS011;69044;48.198;11.468;2023-04-21T10:43:02;10.38;;;5.25;;
79574;SDS011;69044;48.198;11.468;2023-04-21T10:45:30;8.45;;;4.38;;
79574;SDS011;69044;48.198;11.468;2023-04-21T10:50:27;8.52;;;4.68;;
79574;SDS011;69044;48.198;11.468;2023-04-21T10:53:05;11.02;;;5.30;;
79574;SDS011;69044;48.198;11.468;2023-04-21T10:55:34;7.13;;;4.32;;
79574;SDS011;69044;48.198;11.468;2023-04-21T10:58:04;6.72;;;4.28;;
79574;SDS011;69044;48.198;11.468;2023-04-21T11:00:34;8.70;;;3.55;;
79574;SDS011;69044;48.198;11.468;2023-04-21T11:03:03;8.10;;;4.03;;
79574;SDS011;69044;48.198;11.468;2023-04-21T11:05:32;7.60;;;4.32;;
79574;SDS011;69044;48.198;11.468;2023-04-21T11:08:06;8.48;;;4.22;;
79574;SDS011;69044;48.198;11.468;2023-04-21T11:10:42;9.15;;;4.40;;
79574;SDS011;69044;48.198;11.468;2023-04-21T11:13:12;6.25;;;3.83;;
79574;SDS011;69044;48.198;11.468;2023-04-21T11:15:39;7.03;;;4.07;;
79574;SDS011;69044;48.198;11.468;2023-04-21T11:18:06;10.40;;;4.78;;
79574;SDS011;69044;48.198;11.468;2023-04-21T11:20:38;7.85;;;4.75;;
79574;SDS011;69044;48.198;11.468;2023-04-21T11:23:06;10.35;;;5.32;;
79574;SDS011;69044;48.198;11.468;2023-04-21T11:25:33;10.68;;;5.82;;
79574;SDS011;69044;48.198;11.468;2023-04-21T11:28:01;11.13;;;5.85;;
79574;SDS011;69044;48.198;11.468;2023-04-21T11:30:33;8.55;;;4.95;;
79574;SDS011;69044;48.198;11.468;2023-04-21T11:33:00;9.40;;;5.60;;
79574;SDS011;69044;48.198;11.468;2023-04-21T11:35:28;9.32;;;5.43;;
79574;SDS011;69044;48.198;11.468;2023-04-21T11:37:55;11.45;;;5.13;;
79574;SDS011;69044;48.198;11.468;2023-04-21T11:40:22;11.70;;;5.78;;
79574;SDS011;69044;48.198;11.468;2023-04-21T11:42:49;11.15;;;5.65;;
79574;SDS011;69044;48.198;11.468;2023-04-21T11:45:17;7.60;;;4.38;;
79574;SDS011;69044;48.198;11.468;2023-04-21T11:47:46;8.10;;;4.80;;
79574;SDS011;69044;48.198;11.468;2023-04-21T11:50:17;8.98;;;5.07;;
79574;SDS011;69044;48.198;11.468;2023-04-21T11:52:55;8.30;;;4.90;;
79574;SDS011;69044;48.198;11.468;2023-04-21T11:55:23;9.23;;;5.05;;
79574;SDS011;69044;48.198;11.468;2023-04-21T11:57:50;10.88;;;4.95;;
79574;SDS011;69044;48.198;11.468;2023-04-21T12:00:18;9.73;;;5.80;;
79574;SDS011;69044;48.198;11.468;2023-04-21T12:02:54;10.68;;;5.88;;
79574;SDS011;69044;48.198;11.468;2023-04-21T12:05:22;9.35;;;5.20;;
79574;SDS011;69044;48.198;11.468;2023-04-21T12:07:49;9.10;;;5.47;;
79574;SDS011;69044;48.198;11.468;2023-04-21T12:10:17;9.32;;;5.20;;
79574;SDS011;69044;48.198;11.468;2023-04-21T12:12:46;12.98;;;5.75;;
79574;SDS011;69044;48.198;11.468;2023-04-21T12:15:18;9.35;;;5.53;;
79574;SDS011;69044;48.198;11.468;2023-04-21T12:17:48;9.77;;;5.63;;
79574;SDS011;69044;48.198;11.468;2023-04-21T12:20:18;8.60;;;5.00;;
79574;SDS011;69044;48.198;11.468;2023-04-21T12:22:46;8.05;;;4.60;;
79574;SDS011;69044;48.198;11.468;2023-04-21T12:25:14;9.25;;;5.13;;
79574;SDS011;69044;48.198;11.468;2023-04-21T12:27:46;8.60;;;4.57;;
79574;SDS011;69044;48.198;11.468;2023-04-21T12:30:14;10.40;;;5.10;;
79574;SDS011;69044;48.198;11.468;2023-04-21T12:32:41;9.57;;;4.97;;
79574;SDS011;69044;48.198;11.468;2023-04-21T12:35:09;9.23;;;4.97;;
79574;SDS011;69044;48.198;11.468;2023-04-21T12:37:37;7.55;;;4.18;;
79574;SDS011;69044;48.198;11.468;2023-04-21T12:40:05;8.15;;;4.75;;
79574;SDS011;69044;48.198;11.468;2023-04-21T12:42:33;9.15;;;4.82;;
79574;SDS011;69044;48.198;11.468;2023-04-21T12:45:00;10.35;;;5.03;;
79574;SDS011;69044;48.198;11.468;2023-04-21T12:47:30;10.07;;;5.30;;
79574;SDS011;69044;48.198;11.468;2023-04-21T12:50:00;7.95;;;4.90;;
79574;SDS011;69044;48.198;11.468;2023-04-21T12:52:27;8.68;;;4.68;;
79574;SDS011;69044;48.198;11.468;2023-04-21T12:54:56;7.00;;;4.07;;
79574;SDS011;69044;48.198;11.468;2023-04-21T12:57:23;7.82;;;4.05;;
79574;SDS011;69044;48.198;11.468;2023-04-21T12:59:50;7.15;;;4.22;;
79574;SDS011;69044;48.198;11.468;2023-04-21T13:02:17;6.45;;;3.88;;
79574;SDS011;69044;48.198;11.468;2023-04-21T13:04:45;4.55;;;3.00;;
79574;SDS011;69044;48.198;11.468;2023-04-21T13:07:12;5.25;;;2.80;;
79574;SDS011;69044;48.198;11.468;2023-04-21T13:09:41;4.43;;;2.67;;
79574;SDS011;69044;48.198;11.468;2023-04-21T13:12:09;5.50;;;2.30;;
79574;SDS011;69044;48.198;11.468;2023-04-21T13:15:02;3.90;;;2.45;;
79574;SDS011;69044;48.198;11.468;2023-04-21T13:17:30;3.75;;;2.17;;
79574;SDS011;69044;48.198;11.468;2023-04-21T13:19:58;5.00;;;3.08;;
79574;SDS011;69044;48.198;11.468;2023-04-21T13:22:25;3.10;;;1.92;;
79574;SDS011;69044;48.198;11.468;2023-04-21T13:24:52;3.53;;;2.20;;
79574;SDS011;69044;48.198;11.468;2023-04-21T13:27:21;2.90;;;2.00;;
79574;SDS011;69044;48.198;11.468;2023-04-21T13:29:48;4.20;;;2.03;;
79574;SDS011;69044;48.198;11.468;2023-04-21T13:32:15;3.17;;;2.00;;
79574;SDS011;69044;48.198;11.468;2023-04-21T13:34:42;3.85;;;2.42;;
79574;SDS011;69044;48.198;11.468;2023-04-21T13:37:10;4.38;;;2.42;;
79574;SDS011;69044;48.198;11.468;2023-04-21T13:39:40;3.83;;;2.20;;
79574;SDS011;69044;48.198;11.468;2023-04-21T13:42:08;3.30;;;2.10;;
79574;SDS011;69044;48.198;11.468;2023-04-21T13:44:37;4.97;;;2.30;;
79574;SDS011;69044;48.198;11.468;2023-04-21T13:47:04;3.20;;;2.00;;
79574;SDS011;69044;48.198;11.468;2023-04-21T13:49:33;4.78;;;2.20;;
79574;SDS011;69044;48.198;11.468;2023-04-21T13:52:01;3.50;;;2.13;;
79574;SDS011;69044;48.198;11.468;2023-04-21T13:54:28;3.22;;;1.98;;
79574;SDS011;69044;48.198;11.468;2023-04-21T13:56:55;2.80;;;1.80;;
79574;SDS011;69044;48.198;11.468;2023-04-21T13:59:26;2.63;;;1.77;;
79574;SDS011;69044;48.198;11.468;2023-04-21T14:01:55;3.15;;;1.92;;
79574;SDS011;69044;48.198;11.468;2023-04-21T14:04:23;2.60;;;1.58;;
79574;SDS011;69044;48.198;11.468;2023-04-21T14:06:58;3.35;;;2.13;;
79574;SDS011;69044;48.198;11.468;2023-04-21T14:09:25;3.63;;;2.20;;
79574;SDS011;69044;48.198;11.468;2023-04-21T14:11:53;4.38;;;2.63;;
79574;SDS011;69044;48.198;11.468;2023-04-21T14:14:21;4.03;;;2.45;;
79574;SDS011;69044;48.198;11.468;2023-04-21T14:16:48;6.00;;;2.97;;
79574;SDS011;69044;48.198;11.468;2023-04-21T14:19:17;5.13;;;3.08;;
79574;SDS011;69044;48.198;11.468;2023-04-21T14:21:44;4.40;;;2.55;;
79574;SDS011;69044;48.198;11.468;2023-04-21T14:24:11;4.00;;;2.45;;
79574;SDS011;69044;48.198;11.468;2023-04-21T14:26:39;4.22;;;2.28;;
79574;SDS011;69044;48.198;11.468;2023-04-21T14:29:08;4.22;;;2.67;;
79574;SDS011;69044;48.198;11.468;2023-04-21T14:31:36;4.55;;;2.55;;
79574;SDS011;69044;48.198;11.468;2023-04-21T14:34:03;4.18;;;2.30;;
79574;SDS011;69044;48.198;11.468;2023-04-21T14:36:32;3.30;;;2.15;;
79574;SDS011;69044;48.198;11.468;2023-04-21T14:38:59;4.03;;;2.20;;
79574;SDS011;69044;48.198;11.468;2023-04-21T14:41:26;3.30;;;2.08;;
79574;SDS011;69044;48.198;11.468;2023-04-21T14:43:53;17.33;;;7.55;;
79574;SDS011;69044;48.198;11.468;2023-04-21T14:46:22;8.27;;;4.95;;
79574;SDS011;69044;48.198;11.468;2023-04-21T14:48:50;2.97;;;1.90;;
79574;SDS011;69044;48.198;11.468;2023-04-21T14:51:18;3.63;;;2.00;;
79574;SDS011;69044;48.198;11.468;2023-04-21T14:53:47;2.85;;;1.70;;
79574;SDS011;69044;48.198;11.468;2023-04-21T14:56:14;2.83;;;1.85;;
79574;SDS011;69044;48.198;11.468;2023-04-21T14:58:41;2.55;;;1.80;;
79574;SDS011;69044;48.198;11.468;2023-04-21T15:01:11;3.10;;;1.73;;
79574;SDS011;69044;48.198;11.468;2023-04-21T15:03:39;2.90;;;1.80;;